Time;durP1;ratioP1;P1;durP2;ratioP2;P2;SDS_P1;SDS_P2;PMS_P1;PMS_P2;Temp;Humidity;BMP_temperature;BMP_pressure;BME280_temperature;BME280_humidity;BME280_pressure;Samples;Min_cycle;Max_cycle;Signal;HPM_P1;HPM_P2
2023/01/28 00:01:37;;;;;;;2.63;1.40;;;;;;;13.22;48.64;99749.75;5032058;28;20468;-80
2023/01/28 00:04:03;;;;;;;2.58;1.35;;;;;;;13.18;48.72;99736.78;5048879;28;20033;-80
2023/01/28 00:06:28;;;;;;;4.03;1.35;;;;;;;13.20;48.66;99755.94;5052139;28;20021;-80
2023/01/28 00:08:54;;;;;;;2.35;1.30;;;;;;;13.15;48.91;99738.59;5035243;28;20473;-81
2023/01/28 00:11:21;;;;;;;3.22;1.48;;;;;;;13.21;48.73;99742.81;5053015;28;20090;-80
2023/01/28 00:13:51;;;;;;;2.30;1.30;;;;;;;13.24;48.65;99744.50;5053298;28;20039;-80
2023/01/28 00:16:17;;;;;;;3.03;1.33;;;;;;;13.21;49.00;99741.97;5050264;28;20117;-81
2023/01/28 00:18:43;;;;;;;2.88;1.38;;;;;;;13.18;48.71;99731.53;5051114;28;20460;-80
2023/01/28 00:21:13;;;;;;;2.80;1.30;;;;;;;13.18;48.79;99742.91;5035353;28;20120;-80
2023/01/28 00:23:41;;;;;;;2.47;1.20;;;;;;;13.23;48.68;99750.63;5053104;28;20107;-80
2023/01/28 00:26:13;;;;;;;3.42;1.20;;;;;;;13.19;48.82;99748.97;5051928;28;20067;-80
2023/01/28 00:28:39;;;;;;;2.28;1.25;;;;;;;13.20;48.63;99746.34;5032878;28;20057;-80
2023/01/28 00:31:06;;;;;;;2.67;1.25;;;;;;;13.20;48.71;99748.94;5031342;28;20029;-80
2023/01/28 00:33:32;;;;;;;2.67;1.50;;;;;;;13.18;48.70;99742.91;5033057;28;20056;-80
2023/01/28 00:36:01;;;;;;;2.47;1.27;;;;;;;13.16;48.91;99740.31;5033244;28;20112;-80
2023/01/28 00:38:27;;;;;;;2.70;1.33;;;;;;;13.18;48.83;99742.03;5015292;28;20034;-80
2023/01/28 00:40:52;;;;;;;2.78;1.67;;;;;;;13.17;48.79;99741.16;5015049;28;20100;-80
2023/01/28 00:43:18;;;;;;;2.90;1.50;;;;;;;13.18;48.76;99736.78;5033085;28;20036;-80
2023/01/28 00:45:43;;;;;;;2.58;1.30;;;;;;;13.15;48.67;99727.22;5014874;28;20033;-80
2023/01/28 00:48:09;;;;;;;3.22;1.77;;;;;;;13.15;48.64;99720.25;5032535;28;20025;-80
2023/01/28 00:50:34;;;;;;;1.75;1.08;;;;;;;13.14;48.94;99705.41;5052530;28;20036;-80
2023/01/28 00:53:00;;;;;;;2.35;1.30;;;;;;;13.14;49.02;99710.63;5052659;28;20028;-80
2023/01/28 00:55:27;;;;;;;3.40;1.52;;;;;;;13.12;48.81;99711.59;5052949;28;20025;-80
2023/01/28 00:57:52;;;;;;;2.85;1.20;;;;;;;13.13;48.85;99714.16;5052662;28;20493;-80
2023/01/28 01:00:20;;;;;;;2.22;1.30;;;;;;;13.14;48.83;99726.34;5052451;28;20133;-80
2023/01/28 01:02:46;;;;;;;2.80;1.38;;;;;;;13.13;48.81;99727.25;5034862;28;20022;-80
2023/01/28 01:05:11;;;;;;;2.53;1.27;;;;;;;13.14;48.51;99726.34;5050173;28;20029;-80
2023/01/28 01:07:43;;;;;;;3.42;1.52;;;;;;;13.13;48.77;99724.66;5038910;28;20059;-80
2023/01/28 01:10:15;;;;;;;2.55;1.38;;;;;;;13.10;48.90;99719.50;5032580;28;20060;-80
2023/01/28 01:12:40;;;;;;;3.58;1.67;;;;;;;13.10;48.80;99735.22;5032452;28;20052;-80
2023/01/28 01:15:09;;;;;;;3.60;1.60;;;;;;;13.12;48.84;99735.19;5032655;28;20039;-80
2023/01/28 01:17:38;;;;;;;2.85;1.45;;;;;;;13.15;48.56;99728.09;5044869;28;20028;-80
2023/01/28 01:20:06;;;;;;;2.05;1.17;;;;;;;13.12;48.82;99717.69;5052495;28;20029;-80
2023/01/28 01:22:35;;;;;;;2.85;1.60;;;;;;;13.11;48.91;99721.22;5052257;28;20032;-80
2023/01/28 01:25:02;;;;;;;2.75;1.40;;;;;;;13.12;48.82;99724.69;5052299;28;20067;-80
2023/01/28 01:27:29;;;;;;;3.92;1.48;;;;;;;13.07;48.77;99714.31;5052108;28;20032;-80
2023/01/28 01:29:54;;;;;;;2.90;1.33;;;;;;;13.08;48.93;99716.03;5052093;28;20501;-80
2023/01/28 01:32:21;;;;;;;3.55;1.60;;;;;;;13.10;48.82;99719.50;5034345;28;20029;-80
2023/01/28 01:34:46;;;;;;;3.72;1.65;;;;;;;13.07;48.92;99722.16;5052367;28;20029;-80
2023/01/28 01:37:12;;;;;;;3.17;1.52;;;;;;;13.08;48.90;99729.13;5029295;28;20124;-80
2023/01/28 01:39:37;;;;;;;3.40;1.35;;;;;;;13.11;48.81;99741.28;5036090;28;20404;-80
2023/01/28 01:42:03;;;;;;;3.80;1.45;;;;;;;13.09;48.92;99732.63;5035763;28;20418;-79
2023/01/28 01:45:01;;;;;;;3.65;1.45;;;;;;;13.10;48.77;99735.22;5035971;28;20441;-79
2023/01/28 01:47:47;;;;;;;3.42;1.42;;;;;;;13.10;48.81;99736.97;5046486;28;20489;-80
2023/01/28 01:50:42;;;;;;;3.63;1.83;;;;;;;13.09;48.78;99746.59;5055599;28;20029;-81
2023/01/28 01:53:13;;;;;;;2.60;1.38;;;;;;;13.08;48.84;99747.47;5028698;28;20092;-80
2023/01/28 01:55:42;;;;;;;2.63;1.20;;;;;;;13.06;48.86;99754.50;5055603;28;20032;-80
2023/01/28 01:58:12;;;;;;;3.72;1.52;;;;;;;13.08;48.83;99747.47;5039056;28;20105;-79
2023/01/28 02:00:39;;;;;;;2.53;1.38;;;;;;;13.08;48.88;99755.31;5034540;28;20071;-80
2023/01/28 02:03:05;;;;;;;3.22;1.50;;;;;;;13.04;48.95;99745.84;5035790;28;20078;-80
2023/01/28 02:05:30;;;;;;;2.83;1.38;;;;;;;13.04;48.87;99735.34;5035759;28;20104;-80
2023/01/28 02:10:43;;;;;;;2.97;1.33;;;;;;;13.05;48.85;99726.59;5035673;28;20508;-80
2023/01/28 02:13:08;;;;;;;2.58;1.40;;;;;;;13.04;48.82;99730.13;5035788;28;20272;-80
2023/01/28 02:15:34;;;;;;;3.05;1.50;;;;;;;13.04;48.81;99730.13;5035507;28;20018;-81
2023/01/28 02:18:00;;;;;;;2.92;1.35;;;;;;;13.06;48.97;99733.56;5051677;28;20139;-81
2023/01/28 02:20:33;;;;;;;3.00;1.50;;;;;;;12.99;49.04;99739.84;5056936;28;20079;-81
2023/01/28 02:23:36;;;;;;;2.72;1.50;;;;;;;13.03;48.92;99762.47;5038738;28;20024;-80
2023/01/28 02:26:23;;;;;;;3.17;1.50;;;;;;;13.05;48.76;99758.03;5056588;28;20027;-80
2023/01/28 02:28:59;;;;;;;2.78;1.52;;;;;;;13.00;48.75;99752.03;5036633;28;20045;-80
2023/01/28 02:31:46;;;;;;;3.58;1.67;;;;;;;13.05;48.83;99765.91;5036371;28;20034;-81
2023/01/28 02:34:20;;;;;;;3.85;1.60;;;;;;;13.03;48.86;99759.84;5035252;28;20112;-80
2023/01/28 02:36:52;;;;;;;2.33;1.48;;;;;;;12.99;48.83;99760.78;5039774;28;20076;-81
2023/01/28 02:39:23;;;;;;;3.45;1.60;;;;;;;13.02;48.86;99763.34;5055264;28;20036;-80
2023/01/28 02:41:54;;;;;;;3.55;1.60;;;;;;;13.00;48.89;99755.53;5054858;28;20039;-80
2023/01/28 02:44:19;;;;;;;2.38;1.42;;;;;;;13.00;48.81;99754.66;5037267;28;20036;-80
2023/01/28 02:49:56;;;;;;;3.42;1.60;;;;;;;13.01;48.94;99756.38;5055241;28;20052;-80
2023/01/28 02:55:47;;;;;;;3.10;1.58;;;;;;;12.98;48.84;99759.06;5054664;28;20036;-80
2023/01/28 02:58:46;;;;;;;2.90;1.40;;;;;;;13.00;48.90;99759.91;5038632;28;20053;-80
2023/01/28 03:01:25;;;;;;;2.95;1.63;;;;;;;12.98;48.86;99761.69;5035287;28;20036;-80
2023/01/28 03:04:15;;;;;;;2.58;1.45;;;;;;;12.98;48.90;99766.94;5034768;28;20560;-80
2023/01/28 03:06:47;;;;;;;2.95;1.45;;;;;;;12.98;48.81;99757.31;5020062;28;20051;-81
2023/01/28 03:09:24;;;;;;;2.63;1.10;;;;;;;12.99;48.83;99763.41;5054106;28;20043;-80
2023/01/28 03:38:22;;;;;;;3.13;1.60;;;;;;;12.94;48.81;99766.16;5054011;28;20039;-81
2023/01/28 03:40:59;;;;;;;3.22;1.50;;;;;;;12.95;48.90;99772.22;5054022;28;20070;-79
2023/01/28 03:43:25;;;;;;;3.60;1.45;;;;;;;12.92;48.88;99769.69;5053719;28;20029;-80
2023/01/28 03:45:51;;;;;;;2.97;1.42;;;;;;;12.93;49.02;99768.78;5053611;28;20039;-80
2023/01/28 03:48:22;;;;;;;2.95;1.65;;;;;;;12.91;48.86;99767.94;5035640;28;20032;-80
2023/01/28 03:50:48;;;;;;;2.90;1.17;;;;;;;12.91;48.89;99771.44;5053541;28;20147;-80
2023/01/28 03:53:14;;;;;;;2.55;1.40;;;;;;;12.93;48.92;99779.28;5053182;28;20025;-80
2023/01/28 03:55:41;;;;;;;2.67;1.40;;;;;;;12.93;48.95;99774.03;5053550;28;20175;-80
2023/01/28 03:58:07;;;;;;;3.35;1.67;;;;;;;12.93;49.05;99779.28;5039262;28;20433;-79
2023/01/28 04:00:36;;;;;;;2.83;1.40;;;;;;;12.91;48.82;99781.03;5032406;28;20022;-80
2023/01/28 04:03:15;;;;;;;3.70;1.73;;;;;;;12.92;48.96;99780.19;5048973;28;20068;-80
2023/01/28 04:05:45;;;;;;;3.58;1.58;;;;;;;12.93;48.95;99782.72;5033677;28;20048;-80
2023/01/28 04:08:11;;;;;;;2.72;1.60;;;;;;;12.91;48.81;99776.69;5047720;28;20056;-80
2023/01/28 04:10:38;;;;;;;2.53;1.23;;;;;;;12.92;48.86;99788.03;5052843;28;20082;-80
2023/01/28 04:13:05;;;;;;;2.60;1.50;;;;;;;12.91;48.86;99787.16;5035450;28;20033;-80
2023/01/28 04:15:30;;;;;;;3.45;1.40;;;;;;;12.92;48.88;99782.78;5053081;28;20389;-81
2023/01/28 04:17:56;;;;;;;2.35;1.40;;;;;;;12.92;48.87;99785.41;5040195;28;20079;-80
2023/01/28 04:20:21;;;;;;;2.88;1.48;;;;;;;12.91;48.79;99786.28;5049392;28;20028;-80
2023/01/28 04:22:47;;;;;;;2.83;1.40;;;;;;;12.88;48.91;99788.09;5053042;28;20477;-80
2023/01/28 04:25:12;;;;;;;2.78;1.58;;;;;;;12.92;48.95;99788.03;5042986;28;20162;-80
2023/01/28 04:27:38;;;;;;;3.50;1.42;;;;;;;12.88;48.90;99788.09;5052840;28;20406;-80
2023/01/28 04:30:04;;;;;;;2.85;1.80;;;;;;;12.88;48.96;99793.31;5052840;28;20021;-80
2023/01/28 04:32:29;;;;;;;2.38;1.50;;;;;;;12.89;48.94;99795.03;5052911;28;20036;-80
2023/01/28 04:34:55;;;;;;;2.92;1.40;;;;;;;12.88;48.78;99798.56;5052861;28;20028;-80
2023/01/28 04:37:20;;;;;;;2.88;1.45;;;;;;;12.89;49.00;99800.28;5047415;28;20025;-80
2023/01/28 04:39:45;;;;;;;3.40;1.70;;;;;;;12.87;48.93;99804.69;5052846;28;20481;-80
2023/01/28 04:42:11;;;;;;;2.15;1.30;;;;;;;12.93;48.85;99810.72;5052876;28;20025;-80
2023/01/28 04:44:36;;;;;;;2.33;1.42;;;;;;;12.90;48.86;99811.63;5068342;28;20350;-80
2023/01/28 04:47:01;;;;;;;3.08;1.50;;;;;;;12.91;48.79;99804.63;5034975;28;20021;-80
2023/01/28 04:49:27;;;;;;;2.97;1.58;;;;;;;12.91;48.80;99817.72;5052850;28;20025;-80
2023/01/28 04:51:52;;;;;;;2.35;1.30;;;;;;;12.88;48.98;99814.28;5052152;28;20028;-80
2023/01/28 04:54:18;;;;;;;2.72;1.30;;;;;;;12.91;48.80;99817.72;5052626;28;20089;-80
2023/01/28 04:56:43;;;;;;;2.88;1.48;;;;;;;12.88;49.05;99818.63;5047149;28;20021;-80
2023/01/28 04:59:08;;;;;;;2.70;1.20;;;;;;;12.91;48.65;99817.72;5032830;28;20366;-80
2023/01/28 05:01:34;;;;;;;2.47;1.42;;;;;;;12.87;48.84;99809.06;5032705;28;20034;-80
2023/01/28 05:04:04;;;;;;;2.65;1.52;;;;;;;12.86;48.82;99826.56;5032697;28;20043;-80
2023/01/28 05:06:32;;;;;;;2.47;1.50;;;;;;;12.88;48.77;99824.75;5032572;28;20104;-79
2023/01/28 05:08:58;;;;;;;3.28;1.42;;;;;;;12.82;48.90;99819.66;5032650;28;20075;-80
2023/01/28 05:11:23;;;;;;;3.33;1.55;;;;;;;12.85;48.92;99823.97;5035382;28;20449;-81
2023/01/28 05:13:49;;;;;;;2.17;1.38;;;;;;;12.85;48.85;99824.84;5019071;28;20448;-80
2023/01/28 05:16:15;;;;;;;3.00;1.40;;;;;;;12.83;48.95;99826.59;5036974;28;20474;-79
2023/01/28 05:18:40;;;;;;;2.75;1.65;;;;;;;12.83;48.82;99831.00;5039225;28;20052;-80
2023/01/28 05:21:06;;;;;;;2.63;1.30;;;;;;;12.83;48.93;99834.47;5038198;28;20477;-80
2023/01/28 05:23:31;;;;;;;2.38;1.38;;;;;;;12.83;48.85;99834.47;5056102;28;20029;-79
2023/01/28 05:25:56;;;;;;;2.97;1.85;;;;;;;12.88;49.03;99843.09;5056208;28;20025;-80
2023/01/28 05:28:22;;;;;;;3.03;1.60;;;;;;;12.86;48.77;99842.28;5056030;28;20041;-80
2023/01/28 05:30:47;;;;;;;2.65;1.42;;;;;;;12.87;48.79;99849.22;5056139;28;20037;-79
2023/01/28 05:33:13;;;;;;;3.50;1.67;;;;;;;12.86;48.91;99847.50;5056114;28;20048;-80
2023/01/28 05:35:38;;;;;;;2.40;1.50;;;;;;;12.85;48.91;99845.78;5055806;28;20362;-80
2023/01/28 05:38:04;;;;;;;3.15;1.63;;;;;;;12.85;48.86;99843.16;5056233;28;20025;-80
2023/01/28 05:40:30;;;;;;;3.47;1.60;;;;;;;12.84;48.88;99849.28;5055870;28;20175;-79
2023/01/28 05:42:55;;;;;;;2.58;1.33;;;;;;;12.84;49.02;99851.91;5055744;28;20485;-80
2023/01/28 05:45:20;;;;;;;2.72;1.60;;;;;;;12.84;48.91;99851.06;5037989;28;20032;-80
2023/01/28 05:47:46;;;;;;;1.90;1.23;;;;;;;12.84;48.91;99849.28;5045989;28;20017;-80
2023/01/28 05:50:13;;;;;;;2.70;1.35;;;;;;;12.83;48.95;99858.03;5035454;28;20091;-80
2023/01/28 05:52:38;;;;;;;2.33;1.30;;;;;;;12.83;48.92;99852.78;5035856;28;20018;-80
2023/01/28 05:55:05;;;;;;;3.20;1.30;;;;;;;12.83;48.89;99857.19;5034748;28;20036;-80
2023/01/28 05:57:30;;;;;;;3.33;1.40;;;;;;;12.83;48.80;99863.28;5043138;28;20385;-80
2023/01/28 05:59:56;;;;;;;2.78;1.42;;;;;;;12.83;48.93;99858.03;5055588;28;20021;-80
2023/01/28 06:02:21;;;;;;;2.90;1.60;;;;;;;12.87;48.99;99867.56;5055675;28;20020;-80
2023/01/28 06:04:47;;;;;;;3.10;1.50;;;;;;;12.85;48.93;99861.50;5055353;28;20599;-80
2023/01/28 06:07:12;;;;;;;3.30;1.48;;;;;;;12.85;49.03;99860.63;5050403;28;20029;-80
2023/01/28 06:09:38;;;;;;;3.58;1.67;;;;;;;12.85;48.95;99863.25;5035538;28;20022;-80
2023/01/28 06:12:04;;;;;;;3.38;1.73;;;;;;;12.82;48.92;99864.16;5035386;28;20104;-80
2023/01/28 06:14:29;;;;;;;2.35;1.27;;;;;;;12.80;48.99;99865.97;5035607;28;20026;-81
2023/01/28 06:16:55;;;;;;;3.67;1.42;;;;;;;12.82;48.95;99872.03;5052752;28;20160;-80
2023/01/28 06:19:20;;;;;;;1.80;1.23;;;;;;;12.83;48.96;99884.22;5036944;28;20078;-80
2023/01/28 06:21:46;;;;;;;2.78;1.33;;;;;;;12.82;49.02;99871.16;5036084;28;20071;-80
2023/01/28 06:24:11;;;;;;;3.45;1.60;;;;;;;12.82;49.02;99874.66;5055015;28;20025;-80
2023/01/28 06:26:37;;;;;;;3.20;1.55;;;;;;;12.82;49.00;99879.88;5053764;28;20032;-79
2023/01/28 06:29:02;;;;;;;3.22;1.55;;;;;;;12.83;48.97;99878.16;5054826;28;20052;-80
2023/01/28 06:31:28;;;;;;;2.10;1.10;;;;;;;12.84;48.86;99882.47;5055377;28;20449;-80
2023/01/28 06:33:53;;;;;;;2.65;1.42;;;;;;;12.79;48.94;99887.78;5054644;28;20536;-80
2023/01/28 06:36:19;;;;;;;2.45;1.30;;;;;;;12.80;49.03;99884.31;5055088;28;20074;-79
2023/01/28 06:38:44;;;;;;;2.55;1.48;;;;;;;12.79;48.99;99890.41;5037587;28;20029;-80
2023/01/28 06:41:09;;;;;;;3.22;1.42;;;;;;;12.80;49.06;99889.53;5034568;28;20049;-79
2023/01/28 06:43:35;;;;;;;4.25;1.80;;;;;;;12.81;49.00;99888.66;5034633;28;20390;-79
2023/01/28 06:46:00;;;;;;;2.67;1.48;;;;;;;12.80;49.06;99892.16;5034104;28;20393;-79
2023/01/28 06:48:26;;;;;;;2.53;1.38;;;;;;;12.80;49.01;99889.53;5048842;28;20036;-80
2023/01/28 06:50:52;;;;;;;2.22;1.35;;;;;;;12.80;48.96;99889.53;5036811;28;20035;-79
2023/01/28 06:53:19;;;;;;;1.70;1.20;;;;;;;12.82;48.95;99892.97;5054593;28;20139;-80
2023/01/28 06:55:44;;;;;;;3.08;1.65;;;;;;;12.81;49.02;99893.00;5054747;28;20037;-80
2023/01/28 06:58:10;;;;;;;3.17;1.42;;;;;;;12.81;48.97;99885.16;5044504;28;20112;-79
2023/01/28 07:00:36;;;;;;;2.90;1.60;;;;;;;12.80;49.03;99897.41;5055078;28;20439;-80
2023/01/28 07:03:02;;;;;;;3.22;1.33;;;;;;;12.79;49.18;99897.41;5055132;28;20461;-80
2023/01/28 07:05:28;;;;;;;3.22;1.88;;;;;;;12.82;48.98;99903.47;5037282;28;20053;-80
2023/01/28 07:07:53;;;;;;;3.90;1.73;;;;;;;12.79;48.97;99913.97;5055072;28;20047;-80
2023/01/28 07:10:19;;;;;;;2.97;1.63;;;;;;;12.78;48.96;99911.41;5055488;28;20052;-79
2023/01/28 07:12:44;;;;;;;2.80;1.40;;;;;;;12.82;48.87;99919.19;5054376;28;20501;-80
2023/01/28 07:15:10;;;;;;;3.05;1.40;;;;;;;12.81;48.76;99912.22;5054114;28;20029;-80
2023/01/28 07:17:40;;;;;;;3.15;1.38;;;;;;;12.80;48.95;99920.97;5047119;28;20030;-80
2023/01/28 07:20:06;;;;;;;3.00;1.60;;;;;;;12.82;48.92;99920.91;5048417;28;20032;-80
2023/01/28 07:22:32;;;;;;;3.50;1.63;;;;;;;12.80;48.90;99926.22;5054335;28;20017;-80
2023/01/28 07:24:59;;;;;;;2.65;1.38;;;;;;;12.80;49.28;99928.81;5054028;28;20618;-80
2023/01/28 07:27:25;;;;;;;2.45;1.45;;;;;;;12.78;48.74;99927.97;5054255;28;20013;-81
2023/01/28 07:29:51;;;;;;;3.40;1.52;;;;;;;12.80;48.90;99926.22;5053615;28;20044;-80
2023/01/28 07:32:16;;;;;;;2.70;1.35;;;;;;;12.78;48.97;99933.22;5036254;28;20090;-80
2023/01/28 07:34:41;;;;;;;2.88;1.50;;;;;;;12.79;48.77;99937.56;5053558;28;20074;-80
2023/01/28 07:37:08;;;;;;;2.78;1.30;;;;;;;12.79;48.96;99955.03;5033350;28;21167;-80
2023/01/28 07:39:33;;;;;;;2.70;1.40;;;;;;;12.79;48.92;99953.25;5033909;28;20025;-80
2023/01/28 07:42:00;;;;;;;3.10;1.48;;;;;;;12.78;49.03;99959.41;5032766;28;20033;-80
2023/01/28 07:44:25;;;;;;;2.20;1.25;;;;;;;12.82;48.93;99955.84;5033825;28;20029;-80
2023/01/28 07:46:50;;;;;;;2.03;1.25;;;;;;;12.82;48.76;99963.69;5034205;28;20505;-79
2023/01/28 07:49:16;;;;;;;2.80;1.48;;;;;;;12.77;49.01;99962.06;5053765;28;20040;-80
2023/01/28 07:51:41;;;;;;;3.33;1.67;;;;;;;12.79;48.81;99963.75;5053325;28;20489;-80
2023/01/28 07:54:08;;;;;;;2.97;1.63;;;;;;;12.74;49.00;99961.22;5035538;28;20048;-80
2023/01/28 07:56:33;;;;;;;2.85;1.52;;;;;;;12.79;48.94;99976.84;5053492;28;20025;-80
2023/01/28 07:58:59;;;;;;;2.60;1.48;;;;;;;12.81;48.79;99968.97;5053294;28;20388;-80
2023/01/28 08:01:25;;;;;;;3.05;1.60;;;;;;;12.79;48.94;99976.84;5053596;28;20484;-80
2023/01/28 08:03:50;;;;;;;2.80;1.70;;;;;;;12.78;48.87;99980.34;5053356;28;20033;-80
2023/01/28 08:06:16;;;;;;;2.67;1.40;;;;;;;12.79;48.94;99976.84;5053381;28;20040;-80
2023/01/28 08:08:41;;;;;;;3.35;1.50;;;;;;;12.80;48.92;99982.94;5038163;28;20106;-79
2023/01/28 08:11:09;;;;;;;3.63;1.70;;;;;;;12.77;49.03;99988.25;5048637;28;20071;-79
2023/01/28 08:13:36;;;;;;;2.08;1.33;;;;;;;12.80;48.79;99988.19;5033109;28;20042;-79
2023/01/28 08:16:02;;;;;;;3.05;1.42;;;;;;;12.75;48.80;99980.44;5033226;28;20036;-80
2023/01/28 08:18:28;;;;;;;3.88;1.77;;;;;;;12.73;48.95;99985.69;5045563;28;20440;-80
2023/01/28 08:20:57;;;;;;;3.97;1.80;;;;;;;12.74;48.98;99989.19;5033075;28;20025;-80
2023/01/28 08:23:25;;;;;;;3.47;1.60;;;;;;;12.77;48.78;99983.88;5033377;28;20034;-80
2023/01/28 08:25:51;;;;;;;3.55;1.50;;;;;;;12.73;48.95;99982.19;5049338;28;20033;-80
2023/01/28 08:28:17;;;;;;;2.75;1.42;;;;;;;12.72;49.01;99986.56;5052301;28;20045;-80
2023/01/28 08:30:43;;;;;;;2.83;1.45;;;;;;;12.78;48.88;99987.38;5052782;28;20033;-80
2023/01/28 08:33:10;;;;;;;3.70;1.63;;;;;;;12.78;48.86;99992.59;5052784;28;20465;-79
2023/01/28 08:35:36;;;;;;;2.45;1.60;;;;;;;12.75;49.01;99990.91;5052785;28;20116;-79
2023/01/28 08:38:03;;;;;;;2.78;1.52;;;;;;;12.75;48.97;100004.84;5025741;28;20109;-80
2023/01/28 08:40:29;;;;;;;4.35;1.83;;;;;;;12.72;48.92;100006.66;5032678;28;20029;-80
2023/01/28 08:42:55;;;;;;;2.90;1.63;;;;;;;12.77;49.04;100003.97;5032490;28;20488;-79
2023/01/28 08:45:24;;;;;;;3.08;1.80;;;;;;;12.73;48.91;100006.63;5031984;28;20022;-79
2023/01/28 08:47:55;;;;;;;3.75;1.70;;;;;;;12.74;48.91;100004.91;5040068;28;20025;-79
2023/01/28 08:50:22;;;;;;;2.70;1.40;;;;;;;12.74;48.93;100000.50;5052532;28;20028;-80
2023/01/28 08:52:54;;;;;;;4.28;1.73;;;;;;;12.77;48.94;100015.28;5052627;28;20029;-80
2023/01/28 08:55:20;;;;;;;3.35;1.65;;;;;;;12.75;48.96;100006.63;5052566;28;20025;-80
2023/01/28 08:57:45;;;;;;;3.50;1.80;;;;;;;12.75;48.82;100022.31;5045463;28;20036;-79
2023/01/28 09:00:11;;;;;;;3.38;1.73;;;;;;;12.75;48.99;100023.16;5032672;28;20025;-81
2023/01/28 09:02:37;;;;;;;2.45;1.40;;;;;;;12.74;49.06;100031.09;5035170;28;20030;-80
2023/01/28 09:05:04;;;;;;;3.47;1.73;;;;;;;12.73;48.85;100029.31;5047807;28;20551;-79
2023/01/28 09:07:29;;;;;;;3.00;1.63;;;;;;;12.72;48.93;100024.97;5051161;28;20090;-79
2023/01/28 09:09:55;;;;;;;2.95;1.63;;;;;;;12.74;48.94;100031.09;5052527;28;20029;-80
2023/01/28 09:12:21;;;;;;;2.42;1.25;;;;;;;12.76;48.97;100031.91;5035317;28;20064;-79
2023/01/28 09:14:46;;;;;;;2.97;1.48;;;;;;;12.73;48.83;100024.97;5052893;28;20546;-80
2023/01/28 09:17:12;;;;;;;3.03;1.63;;;;;;;12.74;48.88;100036.31;5021704;28;20034;-80
2023/01/28 09:19:37;;;;;;;3.42;1.83;;;;;;;12.72;48.99;100033.72;5042623;28;20079;-79
2023/01/28 09:22:03;;;;;;;3.58;1.70;;;;;;;12.73;48.85;100034.56;5034560;28;20033;-80
2023/01/28 09:24:28;;;;;;;2.78;1.60;;;;;;;12.75;48.86;100043.28;5052406;28;20104;-79
2023/01/28 09:26:54;;;;;;;2.95;1.45;;;;;;;12.72;49.10;100038.97;5052139;28;20036;-80
2023/01/28 09:29:20;;;;;;;3.63;1.67;;;;;;;12.72;48.92;100038.97;5052213;28;20049;-79
2023/01/28 09:31:45;;;;;;;4.00;1.75;;;;;;;12.71;49.01;100037.22;5034300;28;20025;-80
2023/01/28 09:34:11;;;;;;;2.47;1.38;;;;;;;12.72;48.83;100043.31;5052416;28;20040;-79
2023/01/28 09:36:36;;;;;;;3.83;1.30;;;;;;;12.72;48.99;100049.44;5026645;28;20515;-79
2023/01/28 09:39:02;;;;;;;3.55;1.67;;;;;;;12.70;48.99;100045.09;5032308;28;20474;-80
2023/01/28 09:41:36;;;;;;;2.92;1.60;;;;;;;12.72;49.03;100053.78;5031872;28;20034;-79
2023/01/28 09:44:10;;;;;;;3.35;1.73;;;;;;;12.75;48.94;100048.50;5031011;28;20390;-80
2023/01/28 09:46:37;;;;;;;3.08;1.55;;;;;;;12.71;48.85;100042.47;5039379;28;20025;-80
2023/01/28 09:49:16;;;;;;;2.58;1.38;;;;;;;12.72;48.98;100048.56;5052289;28;20036;-80
2023/01/28 09:51:47;;;;;;;2.88;1.70;;;;;;;12.71;48.92;100047.72;5052004;28;20104;-79
2023/01/28 09:54:31;;;;;;;2.70;1.67;;;;;;;12.72;48.97;100043.31;5052126;28;20025;-81
2023/01/28 09:57:05;;;;;;;2.75;1.60;;;;;;;12.70;49.11;100039.88;5043363;28;20047;-79
2023/01/28 09:59:34;;;;;;;3.30;1.77;;;;;;;12.75;48.99;100038.03;5035542;28;20107;-80
2023/01/28 10:02:20;;;;;;;3.70;1.58;;;;;;;12.74;49.03;100036.31;5035881;28;20060;-80
2023/01/28 10:05:03;;;;;;;3.13;1.90;;;;;;;12.72;49.07;100032.84;5035880;28;20028;-80
2023/01/28 10:07:39;;;;;;;3.65;1.85;;;;;;;12.72;49.00;100038.06;5049949;28;20040;-80
2023/01/28 10:10:04;;;;;;;;;;;;;;;12.72;49.08;100043.31;5055389;28;20021;-81
2023/01/28 10:13:14;;;;;;;3.27;1.60;;;;;;;12.71;49.01;100049.44;5055581;28;19920;-79
2023/01/28 10:15:48;;;;;;;2.72;1.58;;;;;;;12.73;48.97;100050.28;4955110;29;20043;-79
2023/01/28 10:18:14;;;;;;;2.90;1.52;;;;;;;12.72;49.19;100048.56;4955189;28;20044;-79
2023/01/28 10:20:56;;;;;;;2.88;1.50;;;;;;;12.71;49.01;100055.56;4955096;28;20035;-80
2023/01/28 10:23:30;;;;;;;3.63;1.90;;;;;;;12.72;48.94;100056.41;4939049;29;20031;-80
2023/01/28 10:25:59;;;;;;;2.88;1.48;;;;;;;12.72;48.88;100049.44;4970271;28;20546;-79
2023/01/28 10:28:27;;;;;;;3.60;1.75;;;;;;;12.72;48.88;100045.94;4938819;29;20047;-80
2023/01/28 10:30:53;;;;;;;2.85;1.63;;;;;;;12.73;48.91;100052.91;4954831;29;20066;-79
2023/01/28 10:33:34;;;;;;;2.70;1.48;;;;;;;12.73;48.79;100047.66;4954975;29;20043;-79
2023/01/28 10:36:00;;;;;;;3.08;1.48;;;;;;;12.76;48.89;100055.47;4954987;29;20476;-79
2023/01/28 10:38:26;;;;;;;3.35;1.67;;;;;;;12.73;48.95;100050.28;4954685;29;20046;-80
2023/01/28 10:40:57;;;;;;;3.17;1.70;;;;;;;12.68;48.83;100052.97;4954623;29;20118;-79
2023/01/28 10:43:25;;;;;;;2.88;1.58;;;;;;;12.75;48.93;100053.75;4955227;28;20448;-80
2023/01/28 10:46:21;;;;;;;3.47;1.50;;;;;;;12.76;48.90;100055.47;4938987;29;20050;-80
2023/01/28 10:49:15;;;;;;;3.45;1.80;;;;;;;12.74;48.91;100052.03;4954944;29;20023;-80
2023/01/28 10:51:42;;;;;;;2.95;1.70;;;;;;;12.74;48.92;100058.13;5023381;28;20041;-80
2023/01/28 10:54:34;;;;;;;3.50;1.80;;;;;;;12.74;48.75;100067.75;5054891;28;20052;-81
2023/01/28 10:57:02;;;;;;;3.55;1.75;;;;;;;12.73;48.69;100060.75;5034254;28;20037;-80
2023/01/28 10:59:31;;;;;;;2.95;1.80;;;;;;;12.72;48.95;100064.25;5054649;28;20485;-80
2023/01/28 11:02:02;;;;;;;3.05;1.60;;;;;;;12.74;48.98;100070.38;5054941;28;20112;-80
2023/01/28 11:04:33;;;;;;;2.42;1.30;;;;;;;12.74;48.92;100067.75;5054671;28;20556;-79
2023/01/28 11:07:01;;;;;;;3.13;1.70;;;;;;;12.75;48.94;100059.00;5045343;28;20112;-80
2023/01/28 11:09:30;;;;;;;3.50;1.75;;;;;;;12.73;49.08;100056.41;5034381;28;20100;-81
2023/01/28 11:11:56;;;;;;;2.65;1.40;;;;;;;12.76;48.91;100060.72;5034698;28;20033;-80
2023/01/28 11:14:26;;;;;;;3.95;1.92;;;;;;;12.75;48.95;100061.59;5034514;28;20028;-80
2023/01/28 11:16:55;;;;;;;4.72;1.75;;;;;;;12.75;48.85;100054.59;5043094;28;20025;-80
2023/01/28 11:19:28;;;;;;;3.30;1.90;;;;;;;12.72;49.08;100053.78;5054160;28;20032;-80
2023/01/28 11:21:56;;;;;;;5.15;1.83;;;;;;;12.75;49.01;100043.28;5053621;28;20029;-79
2023/01/28 11:24:26;;;;;;;4.30;1.75;;;;;;;12.70;49.04;100034.63;5037003;28;20075;-79
2023/01/28 11:26:54;;;;;;;3.83;1.60;;;;;;;12.77;49.06;100043.25;5053942;28;20051;-80
2023/01/28 11:29:33;;;;;;;3.58;1.90;;;;;;;12.73;49.00;100034.56;5035912;28;20191;-79
2023/01/28 11:32:00;;;;;;;3.25;1.60;;;;;;;12.76;49.28;100034.53;5036139;28;20031;-80
2023/01/28 11:34:32;;;;;;;3.40;1.60;;;;;;;12.75;49.18;100027.56;5054062;28;20060;-80
2023/01/28 11:37:12;;;;;;;3.60;1.83;;;;;;;12.75;49.07;100027.56;5040416;28;20069;-80
2023/01/28 11:39:37;;;;;;;4.07;1.73;;;;;;;12.71;49.27;100025.88;5054515;28;20025;-80
2023/01/28 11:42:18;;;;;;;3.40;1.83;;;;;;;12.75;49.17;100035.41;5055020;28;20151;-80
2023/01/28 11:44:44;;;;;;;2.92;1.60;;;;;;;12.77;48.93;100031.00;5054355;28;20473;-80
2023/01/28 11:47:10;;;;;;;2.15;1.30;;;;;;;12.73;49.00;100024.09;5038700;28;20017;-80
2023/01/28 11:49:47;;;;;;;3.17;1.75;;;;;;;12.72;49.26;100024.97;5034934;28;20102;-80
2023/01/28 11:52:31;;;;;;;2.97;1.60;;;;;;;12.74;49.09;100021.44;5034018;28;20040;-80
2023/01/28 11:55:14;;;;;;;3.60;1.50;;;;;;;12.75;49.01;100007.47;5033614;28;20078;-80
2023/01/28 11:57:54;;;;;;;4.45;1.80;;;;;;;12.76;49.09;100013.56;5033483;28;20044;-80
2023/01/28 12:00:44;;;;;;;3.47;1.70;;;;;;;12.75;49.05;100011.84;5033370;28;20103;-79
2023/01/28 12:03:27;;;;;;;3.92;1.60;;;;;;;12.76;49.15;100008.34;5033678;28;20397;-80
2023/01/28 12:06:00;;;;;;;2.97;1.65;;;;;;;12.73;49.14;100008.38;5038170;28;20021;-79
2023/01/28 12:08:33;;;;;;;4.50;1.88;;;;;;;12.73;49.44;99997.91;5039325;28;20036;-79
2023/01/28 12:11:07;;;;;;;3.83;2.08;;;;;;;12.75;49.16;100001.38;5053527;28;20041;-81
2023/01/28 12:13:55;;;;;;;3.70;1.80;;;;;;;12.75;49.24;100001.38;5053741;28;20070;-80
2023/01/28 12:16:32;;;;;;;3.45;1.70;;;;;;;12.76;49.17;100003.09;5026464;28;20029;-80